createdAt,value
2019-03-19T00:00:56.159Z,1014.64
2019-03-19T00:01:56.421Z,1014.65
2019-03-19T00:02:56.119Z,1014.65
2019-03-19T00:03:56.132Z,1014.64
2019-03-19T00:04:56.276Z,1014.66
2019-03-19T00:05:56.173Z,1014.62
2019-03-19T00:06:56.271Z,1014.65
2019-03-19T00:07:56.237Z,1014.67
2019-03-19T00:08:56.141Z,1014.72
2019-03-19T00:09:56.147Z,1014.66
2019-03-19T00:10:56.158Z,1014.70
2019-03-19T00:11:57.898Z,1014.68
2019-03-19T00:12:56.151Z,1014.64
2019-03-19T00:13:56.180Z,1014.61
2019-03-19T00:14:56.169Z,1014.68
2019-03-19T00:15:56.167Z,1014.65
2019-03-19T00:16:56.201Z,1014.65
2019-03-19T00:17:56.185Z,1014.63
2019-03-19T00:18:56.175Z,1014.68
2019-03-19T00:19:56.197Z,1014.70
2019-03-19T00:20:56.206Z,1014.73
2019-03-19T00:21:56.197Z,1014.67
2019-03-19T00:22:56.223Z,1014.66
2019-03-19T00:23:56.193Z,1014.69
2019-03-19T00:24:56.212Z,1014.73
2019-03-19T00:25:56.216Z,1014.76
2019-03-19T00:26:56.196Z,1014.73
2019-03-19T00:27:56.233Z,1014.84
2019-03-19T00:28:56.244Z,1014.80
2019-03-19T00:29:56.225Z,1014.80
2019-03-19T00:30:56.239Z,1014.86
2019-03-19T00:31:56.236Z,1014.85
2019-03-19T00:32:56.248Z,1014.94
2019-03-19T00:33:56.248Z,1014.91
2019-03-19T00:34:56.238Z,1014.87
2019-03-19T00:35:56.249Z,1014.91
2019-03-19T00:36:56.255Z,1014.92
2019-03-19T00:37:56.245Z,1014.89
2019-03-19T00:38:56.349Z,1014.91
2019-03-19T00:39:56.327Z,1014.88
2019-03-19T00:40:56.270Z,1014.98
2019-03-19T00:41:56.277Z,1014.87
2019-03-19T00:42:56.277Z,1014.83
2019-03-19T00:43:56.262Z,1014.83
2019-03-19T00:44:56.293Z,1014.81
2019-03-19T00:45:56.280Z,1014.83
2019-03-19T00:46:56.289Z,1014.87
2019-03-19T00:47:56.300Z,1014.83
2019-03-19T00:48:56.303Z,1014.78
2019-03-19T00:49:56.323Z,1014.75
2019-03-19T00:50:56.286Z,1014.75
2019-03-19T00:51:56.307Z,1014.80
2019-03-19T00:52:56.305Z,1014.77
2019-03-19T00:53:56.310Z,1014.79
2019-03-19T00:54:56.341Z,1014.80
2019-03-19T00:55:56.355Z,1014.82
2019-03-19T00:56:56.327Z,1014.78
2019-03-19T00:57:56.378Z,1014.84
2019-03-19T00:58:56.354Z,1014.77
2019-03-19T00:59:56.330Z,1014.76
2019-03-19T01:00:56.337Z,1014.76
2019-03-19T01:01:56.405Z,1014.79
2019-03-19T01:02:56.355Z,1014.77
2019-03-19T01:03:56.335Z,1014.88
2019-03-19T01:04:56.364Z,1014.75
2019-03-19T01:05:56.371Z,1014.76
2019-03-19T01:06:56.343Z,1014.80
2019-03-19T01:07:56.354Z,1014.76
2019-03-19T01:08:56.363Z,1014.81
2019-03-19T01:09:56.456Z,1014.76
2019-03-19T01:10:56.387Z,1014.79
2019-03-19T01:11:56.372Z,1014.81
2019-03-19T01:12:56.385Z,1014.79
2019-03-19T01:13:56.379Z,1014.82
2019-03-19T01:14:56.385Z,1014.79
2019-03-19T01:15:56.417Z,1014.76
2019-03-19T01:16:56.442Z,1014.83
2019-03-19T01:17:56.387Z,1014.84
2019-03-19T01:18:56.416Z,1014.89
2019-03-19T01:19:56.389Z,1014.89
2019-03-19T01:20:56.402Z,1014.89
2019-03-19T01:21:56.428Z,1014.86
2019-03-19T01:22:56.429Z,1014.89
2019-03-19T01:23:56.415Z,1014.90
2019-03-19T01:24:56.418Z,1014.89
2019-03-19T01:25:56.424Z,1014.90
2019-03-19T01:26:56.439Z,1014.92
2019-03-19T01:27:56.463Z,1014.93
2019-03-19T01:28:56.425Z,1014.96
2019-03-19T01:29:56.437Z,1014.98
2019-03-19T01:30:56.444Z,1015.04
2019-03-19T01:31:56.480Z,1015.03
2019-03-19T01:32:56.474Z,1015.01
2019-03-19T01:33:56.461Z,1015.02
2019-03-19T01:34:56.468Z,1015.11
2019-03-19T01:35:56.543Z,1014.97
2019-03-19T01:36:56.444Z,1015.04
2019-03-19T01:37:56.510Z,1015.06
2019-03-19T01:38:56.473Z,1015.09
2019-03-19T01:39:56.467Z,1015.13
2019-03-19T01:40:56.461Z,1015.14
2019-03-19T01:41:56.475Z,1015.14
2019-03-19T01:42:56.460Z,1015.16
2019-03-19T01:43:56.530Z,1015.18
2019-03-19T01:44:56.488Z,1015.23
2019-03-19T01:45:56.520Z,1015.25
2019-03-19T01:46:56.494Z,1015.20
2019-03-19T01:47:56.485Z,1015.24
2019-03-19T01:48:56.514Z,1015.22
2019-03-19T01:49:56.523Z,1015.20
2019-03-19T01:50:56.502Z,1015.22
2019-03-19T01:51:56.538Z,1015.12
2019-03-19T01:52:56.526Z,1015.23
2019-03-19T01:53:56.514Z,1015.22
2019-03-19T01:54:56.555Z,1015.22
2019-03-19T01:56:04.726Z,1015.24
2019-03-19T01:56:56.545Z,1015.25
2019-03-19T01:57:56.543Z,1015.33
2019-03-19T01:58:56.523Z,1015.28
2019-03-19T01:59:56.575Z,1015.34
2019-03-19T02:00:56.544Z,1015.34
2019-03-19T02:01:56.573Z,1015.31
2019-03-19T02:02:56.618Z,1015.31
2019-03-19T02:03:56.561Z,1015.35
2019-03-19T02:04:56.542Z,1015.34
2019-03-19T02:05:56.598Z,1015.36
2019-03-19T02:06:56.550Z,1015.39
2019-03-19T02:07:56.560Z,1015.40
2019-03-19T02:08:56.559Z,1015.43
2019-03-19T02:09:56.583Z,1015.39
2019-03-19T02:10:56.638Z,1015.37
2019-03-19T02:11:56.576Z,1015.41
2019-03-19T02:12:56.595Z,1015.47
2019-03-19T02:13:56.585Z,1015.43
2019-03-19T02:14:56.600Z,1015.39
2019-03-19T02:15:56.715Z,1015.46
2019-03-19T02:16:56.593Z,1015.43
2019-03-19T02:17:56.593Z,1015.43
2019-03-19T02:18:56.611Z,1015.44
2019-03-19T02:19:56.592Z,1015.46
2019-03-19T02:20:56.598Z,1015.48
2019-03-19T02:21:56.627Z,1015.48
2019-03-19T02:22:56.642Z,1015.51
2019-03-19T02:23:56.615Z,1015.57
2019-03-19T02:24:56.632Z,1015.53
2019-03-19T02:25:56.642Z,1015.57
2019-03-19T02:26:56.772Z,1015.58
2019-03-19T02:27:56.648Z,1015.51
2019-03-19T02:28:56.637Z,1015.60
2019-03-19T02:29:56.637Z,1015.62
2019-03-19T02:30:56.665Z,1015.62
2019-03-19T02:31:56.648Z,1015.59
2019-03-19T02:32:56.683Z,1015.66
2019-03-19T02:33:56.695Z,1015.62
2019-03-19T02:34:56.677Z,1015.64
2019-03-19T02:35:56.657Z,1015.66
2019-03-19T02:36:56.666Z,1015.72
2019-03-19T02:37:56.688Z,1015.67
2019-03-19T02:38:56.671Z,1015.70
2019-03-19T02:39:56.710Z,1015.73
2019-03-19T02:40:56.674Z,1015.76
2019-03-19T02:41:56.684Z,1015.72
2019-03-19T02:42:56.692Z,1015.75
2019-03-19T02:43:56.697Z,1015.76
2019-03-19T02:44:56.815Z,1015.76
2019-03-19T02:45:56.713Z,1015.74
2019-03-19T02:46:56.698Z,1015.78
2019-03-19T02:47:56.695Z,1015.72
2019-03-19T02:48:56.693Z,1015.76
2019-03-19T02:49:56.734Z,1015.75
2019-03-19T02:50:56.716Z,1015.79
2019-03-19T02:51:56.731Z,1015.75
2019-03-19T02:52:56.718Z,1015.74
2019-03-19T02:53:56.718Z,1015.77
2019-03-19T02:54:56.767Z,1015.83
2019-03-19T02:55:56.730Z,1015.87
2019-03-19T02:56:56.741Z,1015.85
2019-03-19T02:57:56.751Z,1015.87
2019-03-19T02:58:56.754Z,1015.88
2019-03-19T02:59:56.769Z,1015.86
2019-03-19T03:00:56.745Z,1015.92
2019-03-19T03:01:56.739Z,1015.94
2019-03-19T03:02:56.759Z,1015.92
2019-03-19T03:03:56.755Z,1015.93
2019-03-19T03:04:56.753Z,1015.92
2019-03-19T03:05:56.810Z,1015.91
2019-03-19T03:06:56.758Z,1015.98
2019-03-19T03:07:56.760Z,1015.94
2019-03-19T03:08:56.775Z,1015.90
2019-03-19T03:09:56.809Z,1015.91
2019-03-19T03:10:56.797Z,1015.91
2019-03-19T03:11:56.767Z,1015.92
2019-03-19T03:12:56.776Z,1015.98
2019-03-19T03:13:56.776Z,1015.92
2019-03-19T03:14:56.786Z,1015.98
2019-03-19T03:15:56.788Z,1016.01
2019-03-19T03:16:56.878Z,1015.99
2019-03-19T03:17:56.801Z,1016.02
2019-03-19T03:18:56.796Z,1015.98
2019-03-19T03:19:56.802Z,1016.03
2019-03-19T03:20:56.838Z,1015.98
2019-03-19T03:21:56.921Z,1016.01
2019-03-19T03:22:56.820Z,1016.02
2019-03-19T03:23:56.866Z,1015.96
2019-03-19T03:24:56.828Z,1015.99
2019-03-19T03:25:56.836Z,1015.98
2019-03-19T03:26:56.824Z,1016.00
2019-03-19T03:27:56.858Z,1015.99
2019-03-19T03:28:56.837Z,1016.00
2019-03-19T03:29:56.871Z,1016.02
2019-03-19T03:30:56.967Z,1016.05
2019-03-19T03:31:56.906Z,1016.06
2019-03-19T03:32:56.886Z,1016.09
2019-03-19T03:33:56.882Z,1016.06
2019-03-19T03:34:56.856Z,1016.07
2019-03-19T03:35:56.854Z,1016.10
2019-03-19T03:36:56.889Z,1016.07
2019-03-19T03:37:56.884Z,1016.10
2019-03-19T03:38:56.925Z,1016.14
2019-03-19T03:39:56.852Z,1016.11
2019-03-19T03:40:56.885Z,1016.20
2019-03-19T03:41:56.877Z,1016.23
2019-03-19T03:42:56.899Z,1016.16
2019-03-19T03:43:56.889Z,1016.26
2019-03-19T03:44:56.909Z,1016.28
2019-03-19T03:45:56.887Z,1016.28
2019-03-19T03:46:56.911Z,1016.27
2019-03-19T03:47:56.931Z,1016.26
2019-03-19T03:48:56.884Z,1016.26
2019-03-19T03:49:56.892Z,1016.28
2019-03-19T03:50:56.908Z,1016.29
2019-03-19T03:51:56.907Z,1016.32
2019-03-19T03:52:56.971Z,1016.33
2019-03-19T03:53:56.910Z,1016.37
2019-03-19T03:54:56.942Z,1016.34
2019-03-19T03:55:56.901Z,1016.35
2019-03-19T03:57:02.580Z,1016.41
2019-03-19T03:57:56.936Z,1016.45
2019-03-19T03:59:00.879Z,1016.49
2019-03-19T03:59:56.929Z,1016.51
2019-03-19T04:00:56.938Z,1016.47
2019-03-19T04:01:56.932Z,1016.53
2019-03-19T04:02:56.970Z,1016.53
2019-03-19T04:03:56.940Z,1016.53
2019-03-19T04:04:56.936Z,1016.62
2019-03-19T04:05:56.970Z,1016.61
2019-03-19T04:06:56.951Z,1016.61
2019-03-19T04:07:56.955Z,1016.61
2019-03-19T04:08:56.970Z,1016.63
2019-03-19T04:09:56.981Z,1016.68
2019-03-19T04:10:56.959Z,1016.68
2019-03-19T04:11:56.965Z,1016.67
2019-03-19T04:12:56.982Z,1016.66
2019-03-19T04:13:56.979Z,1016.67
2019-03-19T04:14:56.990Z,1016.69
2019-03-19T04:15:57.036Z,1016.74
2019-03-19T04:16:56.983Z,1016.75
2019-03-19T04:17:56.984Z,1016.78
2019-03-19T04:18:57.050Z,1016.80
2019-03-19T04:19:57.005Z,1016.81
2019-03-19T04:20:57.011Z,1016.81
2019-03-19T04:21:57.023Z,1016.82
2019-03-19T04:22:57.004Z,1016.86
2019-03-19T04:23:56.992Z,1016.90
2019-03-19T04:24:57.038Z,1016.93
2019-03-19T04:25:57.050Z,1016.92
2019-03-19T04:26:57.072Z,1016.99
2019-03-19T04:27:57.016Z,1016.99
2019-03-19T04:28:57.018Z,1016.98
2019-03-19T04:29:57.034Z,1016.99
2019-03-19T04:30:57.046Z,1017.01
2019-03-19T04:31:57.880Z,1016.99
2019-03-19T04:32:57.048Z,1017.00
2019-03-19T04:33:57.066Z,1016.98
2019-03-19T04:34:57.067Z,1016.97
2019-03-19T04:35:57.062Z,1016.98
2019-03-19T04:36:57.080Z,1016.98
2019-03-19T04:37:57.063Z,1016.97
2019-03-19T04:38:57.051Z,1016.97
2019-03-19T04:39:57.069Z,1016.97
2019-03-19T04:40:57.089Z,1017.02
2019-03-19T04:41:57.107Z,1017.00
2019-03-19T04:42:57.078Z,1016.99
2019-03-19T04:43:57.079Z,1016.99
2019-03-19T04:44:57.087Z,1016.96
2019-03-19T04:45:57.186Z,1016.99
2019-03-19T04:46:57.340Z,1016.98
2019-03-19T04:47:57.124Z,1017.03
2019-03-19T04:48:57.370Z,1017.00
2019-03-19T04:49:57.105Z,1016.99
2019-03-19T04:50:57.114Z,1017.01
2019-03-19T04:51:57.102Z,1017.03
2019-03-19T04:52:57.134Z,1017.02
2019-03-19T04:53:57.127Z,1017.05
2019-03-19T04:54:57.153Z,1017.08
2019-03-19T04:55:57.127Z,1017.04
2019-03-19T04:56:57.113Z,1017.02
2019-03-19T04:57:57.157Z,1017.02
2019-03-19T04:58:57.121Z,1017.05
2019-03-19T04:59:58.937Z,1017.11
2019-03-19T05:00:57.134Z,1017.09
2019-03-19T05:01:57.144Z,1017.10
2019-03-19T05:02:57.204Z,1017.12
2019-03-19T05:03:57.144Z,1017.09
2019-03-19T05:04:57.173Z,1017.13
2019-03-19T05:05:59.542Z,1017.12
2019-03-19T05:06:57.190Z,1017.19
2019-03-19T05:07:57.233Z,1017.24
2019-03-19T05:08:57.183Z,1017.23
2019-03-19T05:09:57.188Z,1017.26
2019-03-19T05:10:57.170Z,1017.29
2019-03-19T05:11:57.233Z,1017.36
2019-03-19T05:12:57.175Z,1017.38
2019-03-19T05:13:57.199Z,1017.48
2019-03-19T05:14:57.200Z,1017.47
2019-03-19T05:15:57.184Z,1017.49
2019-03-19T05:16:57.179Z,1017.51
2019-03-19T05:17:57.194Z,1017.56
2019-03-19T05:18:57.225Z,1017.60
2019-03-19T05:19:57.232Z,1017.55
2019-03-19T05:20:57.227Z,1017.58
2019-03-19T05:21:57.202Z,1017.60
2019-03-19T05:22:57.294Z,1017.61
2019-03-19T05:23:57.264Z,1017.68
2019-03-19T05:24:57.219Z,1017.66
2019-03-19T05:25:57.254Z,1017.71
2019-03-19T05:26:57.274Z,1017.77
2019-03-19T05:27:57.264Z,1017.72
2019-03-19T05:28:57.261Z,1017.72
2019-03-19T05:29:57.325Z,1017.76
2019-03-19T05:30:57.250Z,1017.77
2019-03-19T05:31:57.386Z,1017.80
2019-03-19T05:32:57.238Z,1017.78
2019-03-19T05:33:57.267Z,1017.75
2019-03-19T05:34:57.266Z,1017.77
2019-03-19T05:35:57.649Z,1017.81
2019-03-19T05:36:57.282Z,1017.79
2019-03-19T05:37:57.269Z,1017.83
2019-03-19T05:38:57.288Z,1017.81
2019-03-19T05:39:57.343Z,1017.81
2019-03-19T05:40:57.303Z,1017.81
2019-03-19T05:41:57.309Z,1017.87
2019-03-19T05:42:57.311Z,1017.89
2019-03-19T05:43:57.283Z,1017.91
2019-03-19T05:44:57.280Z,1017.91
2019-03-19T05:45:57.336Z,1017.91
2019-03-19T05:46:57.301Z,1017.96
2019-03-19T05:47:57.296Z,1017.93
2019-03-19T05:48:57.308Z,1017.95
2019-03-19T05:49:57.308Z,1018.03
2019-03-19T05:50:57.321Z,1018.00
2019-03-19T05:51:57.340Z,1017.99
2019-03-19T05:52:57.344Z,1018.01
2019-03-19T05:53:57.404Z,1018.00
2019-03-19T05:54:57.372Z,1017.99
2019-03-19T05:55:57.333Z,1018.08
2019-03-19T05:56:57.395Z,1018.04
2019-03-19T05:57:57.341Z,1018.11
2019-03-19T05:58:57.338Z,1018.14
2019-03-19T05:59:57.362Z,1018.10
2019-03-19T06:00:57.455Z,1018.17
2019-03-19T06:01:57.358Z,1018.14
2019-03-19T06:02:58.239Z,1018.19
2019-03-19T06:03:57.360Z,1018.19
2019-03-19T06:04:57.353Z,1018.20
2019-03-19T06:05:57.363Z,1018.22
2019-03-19T06:06:57.435Z,1018.26
2019-03-19T06:07:57.385Z,1018.26
2019-03-19T06:08:57.433Z,1018.27
2019-03-19T06:09:57.413Z,1018.33
2019-03-19T06:10:57.409Z,1018.32
2019-03-19T06:11:57.396Z,1018.32
2019-03-19T06:12:57.405Z,1018.31
2019-03-19T06:13:57.483Z,1018.32
2019-03-19T06:14:57.392Z,1018.36
2019-03-19T06:15:57.394Z,1018.36
2019-03-19T06:16:57.428Z,1018.37
2019-03-19T06:17:57.470Z,1018.39
2019-03-19T06:18:57.456Z,1018.36
2019-03-19T06:19:57.421Z,1018.43
2019-03-19T06:20:57.437Z,1018.45
2019-03-19T06:21:57.426Z,1018.48
2019-03-19T06:22:57.499Z,1018.45
2019-03-19T06:23:57.443Z,1018.48
2019-03-19T06:24:57.454Z,1018.50
2019-03-19T06:25:57.516Z,1018.54
2019-03-19T06:26:57.458Z,1018.52
2019-03-19T06:28:00.786Z,1018.55
2019-03-19T06:28:57.490Z,1018.56
2019-03-19T06:29:57.482Z,1018.58
2019-03-19T06:30:57.484Z,1018.58
2019-03-19T06:31:57.461Z,1018.59
2019-03-19T06:32:57.497Z,1018.56
2019-03-19T06:33:57.670Z,1018.55
2019-03-19T06:34:57.482Z,1018.57
2019-03-19T06:35:57.691Z,1018.57
2019-03-19T06:36:57.523Z,1018.59
2019-03-19T06:37:57.694Z,1018.63
2019-03-19T06:38:57.536Z,1018.62
2019-03-19T06:39:57.501Z,1018.68
2019-03-19T06:40:57.553Z,1018.64
2019-03-19T06:41:57.534Z,1018.70
2019-03-19T06:42:57.532Z,1018.68
2019-03-19T06:43:57.575Z,1018.67
2019-03-19T06:44:57.579Z,1018.72
2019-03-19T06:45:57.547Z,1018.66
2019-03-19T06:46:57.538Z,1018.68
2019-03-19T06:47:57.574Z,1018.70
2019-03-19T06:48:57.555Z,1018.68
2019-03-19T06:49:57.574Z,1018.67
2019-03-19T06:50:57.568Z,1018.70
2019-03-19T06:51:57.570Z,1018.73
2019-03-19T06:52:57.576Z,1018.77
2019-03-19T06:53:57.581Z,1018.74
2019-03-19T06:54:57.602Z,1018.75
2019-03-19T06:55:57.704Z,1018.73
2019-03-19T06:56:57.590Z,1018.77
2019-03-19T06:57:57.607Z,1018.76
2019-03-19T06:58:57.588Z,1018.75
2019-03-19T06:59:57.722Z,1018.78
2019-03-19T07:00:57.593Z,1018.74
2019-03-19T07:01:57.695Z,1018.77
2019-03-19T07:02:57.618Z,1018.77
2019-03-19T07:03:57.623Z,1018.77
2019-03-19T07:04:57.629Z,1018.79
2019-03-19T07:05:57.640Z,1018.72
2019-03-19T07:06:57.687Z,1018.72
2019-03-19T07:07:57.636Z,1018.76
2019-03-19T07:08:57.667Z,1018.79
2019-03-19T07:09:57.660Z,1018.89
2019-03-19T07:10:57.666Z,1018.83
2019-03-19T07:11:57.676Z,1018.90
2019-03-19T07:12:57.665Z,1018.89
2019-03-19T07:13:57.670Z,1018.90
2019-03-19T07:14:57.685Z,1018.95
2019-03-19T07:15:57.698Z,1018.92
2019-03-19T07:16:57.696Z,1018.89
2019-03-19T07:17:57.702Z,1018.91
2019-03-19T07:18:57.726Z,1018.93
2019-03-19T07:19:57.715Z,1018.93
2019-03-19T07:20:57.697Z,1018.96
2019-03-19T07:21:57.715Z,1018.93
2019-03-19T07:22:57.711Z,1018.93
2019-03-19T07:23:57.706Z,1018.95
2019-03-19T07:24:57.722Z,1018.94
2019-03-19T07:25:57.736Z,1018.90
2019-03-19T07:26:57.784Z,1018.97
2019-03-19T07:27:57.739Z,1018.94
2019-03-19T07:28:57.735Z,1019.00
2019-03-19T07:29:57.759Z,1018.95
2019-03-19T07:30:57.765Z,1018.97
2019-03-19T07:31:57.750Z,1018.99
2019-03-19T07:32:57.858Z,1019.03
2019-03-19T07:33:57.780Z,1019.06
2019-03-19T07:34:57.853Z,1019.12
2019-03-19T07:35:57.775Z,1019.11
2019-03-19T07:36:57.794Z,1019.08
2019-03-19T07:37:57.807Z,1019.14
2019-03-19T07:38:57.795Z,1019.13
2019-03-19T07:39:57.793Z,1019.12
2019-03-19T07:40:57.819Z,1019.16
2019-03-19T07:41:57.801Z,1019.18
2019-03-19T07:42:57.880Z,1019.24
2019-03-19T07:43:57.885Z,1019.23
2019-03-19T07:44:57.840Z,1019.20
2019-03-19T07:45:57.836Z,1019.20
2019-03-19T07:46:57.816Z,1019.20
2019-03-19T07:47:57.912Z,1019.21
2019-03-19T07:48:57.846Z,1019.24
2019-03-19T07:49:57.926Z,1019.27
2019-03-19T07:50:57.862Z,1019.22
2019-03-19T07:51:57.831Z,1019.32
2019-03-19T07:52:57.850Z,1019.38
2019-03-19T07:53:57.870Z,1019.45
2019-03-19T07:54:57.865Z,1019.51
2019-03-19T07:55:57.857Z,1019.45
2019-03-19T07:56:57.885Z,1019.50
2019-03-19T07:57:57.885Z,1019.47
2019-03-19T07:58:57.917Z,1019.52
2019-03-19T07:59:57.897Z,1019.59
2019-03-19T08:00:57.908Z,1019.47
2019-03-19T08:01:57.913Z,1019.49
2019-03-19T08:02:57.900Z,1019.56
2019-03-19T08:03:57.955Z,1019.53
2019-03-19T08:04:57.900Z,1019.62
2019-03-19T08:05:57.903Z,1019.61
2019-03-19T08:06:57.889Z,1019.67
2019-03-19T08:07:57.904Z,1019.64
2019-03-19T08:08:57.953Z,1019.67
2019-03-19T08:09:57.984Z,1019.64
2019-03-19T08:10:57.971Z,1019.72
2019-03-19T08:11:57.999Z,1019.67
2019-03-19T08:12:58.018Z,1019.65
2019-03-19T08:13:57.948Z,1019.64
2019-03-19T08:14:57.966Z,1019.61
2019-03-19T08:15:58.025Z,1019.69
2019-03-19T08:16:57.948Z,1019.68
2019-03-19T08:17:57.976Z,1019.70
2019-03-19T08:18:57.976Z,1019.71
2019-03-19T08:19:57.998Z,1019.73
2019-03-19T08:20:57.992Z,1019.73
2019-03-19T08:21:58.053Z,1019.80
2019-03-19T08:22:58.007Z,1019.74
2019-03-19T08:23:58.803Z,1019.82
2019-03-19T08:24:58.007Z,1019.82
2019-03-19T08:25:58.003Z,1019.83
2019-03-19T08:26:58.041Z,1019.83
2019-03-19T08:27:58.010Z,1019.83
2019-03-19T08:28:58.047Z,1019.87
2019-03-19T08:29:58.018Z,1019.91
2019-03-19T08:30:58.045Z,1019.89
2019-03-19T08:31:58.064Z,1019.88
2019-03-19T08:32:58.036Z,1019.84
2019-03-19T08:33:58.059Z,1019.86
2019-03-19T08:34:58.086Z,1019.90
2019-03-19T08:36:08.750Z,1019.92
2019-03-19T08:36:58.103Z,1019.91
2019-03-19T08:37:58.057Z,1019.97
2019-03-19T08:38:58.064Z,1020.00
2019-03-19T08:39:58.074Z,1020.05
2019-03-19T08:40:58.146Z,1020.06
2019-03-19T08:41:58.084Z,1020.01
2019-03-19T08:42:58.376Z,1020.01
2019-03-19T08:43:58.103Z,1020.02
2019-03-19T08:44:58.103Z,1020.04
2019-03-19T08:45:58.111Z,1019.97
2019-03-19T08:46:58.335Z,1020.01
2019-03-19T08:47:58.127Z,1020.10
2019-03-19T08:48:58.152Z,1020.04
2019-03-19T08:49:58.145Z,1020.05
2019-03-19T08:50:58.155Z,1019.99
2019-03-19T08:51:58.138Z,1020.01
2019-03-19T08:52:58.158Z,1020.06
2019-03-19T08:53:58.167Z,1020.00
2019-03-19T08:54:58.187Z,1020.06
2019-03-19T08:55:58.180Z,1020.02
2019-03-19T08:56:58.186Z,1020.07
2019-03-19T08:57:58.183Z,1020.04
2019-03-19T08:59:05.521Z,1020.03
2019-03-19T08:59:58.177Z,1020.02
2019-03-19T09:00:58.165Z,1020.07
2019-03-19T09:01:58.175Z,1020.07
2019-03-19T09:02:58.181Z,1020.09
2019-03-19T09:03:58.195Z,1020.12
2019-03-19T09:04:58.242Z,1020.11
2019-03-19T09:05:58.239Z,1020.09
2019-03-19T09:06:58.211Z,1020.06
2019-03-19T09:07:58.215Z,1020.04
2019-03-19T09:08:58.221Z,1020.07
2019-03-19T09:09:58.268Z,1020.04
2019-03-19T09:10:58.271Z,1020.04
2019-03-19T09:11:58.319Z,1020.08
2019-03-19T09:12:58.261Z,1020.11
2019-03-19T09:13:58.268Z,1020.09
2019-03-19T09:14:58.260Z,1020.15
2019-03-19T09:15:58.263Z,1020.14
2019-03-19T09:16:58.317Z,1020.08
2019-03-19T09:17:58.271Z,1020.09
2019-03-19T09:18:58.291Z,1020.13
2019-03-19T09:19:58.300Z,1020.17
2019-03-19T09:20:58.339Z,1020.19
2019-03-19T09:21:58.302Z,1020.18
2019-03-19T09:22:58.358Z,1020.19
2019-03-19T09:23:58.327Z,1020.25
2019-03-19T09:24:58.290Z,1020.23
2019-03-19T09:25:58.334Z,1020.25
2019-03-19T09:26:58.407Z,1020.25
2019-03-19T09:27:58.313Z,1020.27
2019-03-19T09:28:58.322Z,1020.26
2019-03-19T09:29:58.340Z,1020.25
2019-03-19T09:30:58.332Z,1020.23
2019-03-19T09:31:58.339Z,1020.27
2019-03-19T09:32:58.543Z,1020.23
2019-03-19T09:33:58.347Z,1020.21
2019-03-19T09:34:58.359Z,1020.26
2019-03-19T09:35:58.391Z,1020.25
2019-03-19T09:36:58.404Z,1020.25
2019-03-19T09:37:59.269Z,1020.23
2019-03-19T09:38:58.381Z,1020.23
2019-03-19T09:39:58.390Z,1020.25
2019-03-19T09:40:58.433Z,1020.27
2019-03-19T09:41:58.388Z,1020.27
2019-03-19T09:42:58.429Z,1020.30
2019-03-19T09:43:58.421Z,1020.22
2019-03-19T09:44:58.857Z,1020.27
2019-03-19T09:45:58.432Z,1020.24
2019-03-19T09:46:58.437Z,1020.29
2019-03-19T09:47:58.446Z,1020.28
2019-03-19T09:48:58.440Z,1020.26
2019-03-19T09:49:58.459Z,1020.32
2019-03-19T09:50:58.447Z,1020.32
2019-03-19T09:51:58.455Z,1020.24
2019-03-19T09:52:58.479Z,1020.19
2019-03-19T09:53:58.488Z,1020.25
2019-03-19T09:54:58.469Z,1020.25
2019-03-19T09:55:58.481Z,1020.24
2019-03-19T09:56:58.922Z,1020.20
2019-03-19T09:57:58.512Z,1020.26
2019-03-19T09:58:58.506Z,1020.25
2019-03-19T09:59:58.508Z,1020.26
2019-03-19T10:00:58.520Z,1020.33
2019-03-19T10:01:58.504Z,1020.33
2019-03-19T10:02:58.670Z,1020.34
2019-03-19T10:03:58.513Z,1020.34
2019-03-19T10:04:58.512Z,1020.36
2019-03-19T10:05:58.554Z,1020.38
2019-03-19T10:07:05.907Z,1020.38
2019-03-19T10:07:58.521Z,1020.35
2019-03-19T10:08:58.576Z,1020.35
2019-03-19T10:09:58.549Z,1020.38
2019-03-19T10:10:58.557Z,1020.38
2019-03-19T10:11:58.549Z,1020.31
2019-03-19T10:12:58.549Z,1020.43
2019-03-19T10:13:58.604Z,1020.44
2019-03-19T10:14:58.594Z,1020.42
2019-03-19T10:15:58.593Z,1020.43
2019-03-19T10:16:58.572Z,1020.39
2019-03-19T10:17:58.581Z,1020.41
2019-03-19T10:18:58.589Z,1020.39
2019-03-19T10:19:58.606Z,1020.36
2019-03-19T10:20:58.672Z,1020.48
2019-03-19T10:21:58.610Z,1020.45
2019-03-19T10:22:58.623Z,1020.49
2019-03-19T10:23:58.637Z,1020.53
2019-03-19T10:24:58.640Z,1020.52
2019-03-19T10:25:58.633Z,1020.55
2019-03-19T10:26:58.701Z,1020.56
2019-03-19T10:27:58.663Z,1020.60
2019-03-19T10:28:58.650Z,1020.62
2019-03-19T10:29:58.674Z,1020.61
2019-03-19T10:30:58.689Z,1020.57
2019-03-19T10:31:58.670Z,1020.56
2019-03-19T10:32:58.693Z,1020.56
2019-03-19T10:33:58.684Z,1020.57
2019-03-19T10:34:58.688Z,1020.62
2019-03-19T10:35:58.673Z,1020.60
2019-03-19T10:36:58.714Z,1020.61
2019-03-19T10:37:58.767Z,1020.59
2019-03-19T10:38:58.687Z,1020.60
2019-03-19T10:39:58.729Z,1020.61
2019-03-19T10:40:58.697Z,1020.69
2019-03-19T10:41:58.760Z,1020.59
2019-03-19T10:42:58.708Z,1020.60
2019-03-19T10:43:58.760Z,1020.70
2019-03-19T10:44:58.736Z,1020.66
2019-03-19T10:45:58.754Z,1020.68
2019-03-19T10:46:58.739Z,1020.59
2019-03-19T10:47:58.749Z,1020.66
2019-03-19T10:48:58.740Z,1020.71
2019-03-19T10:49:58.890Z,1020.65
2019-03-19T10:50:58.758Z,1020.66
2019-03-19T10:51:58.797Z,1020.71
2019-03-19T10:52:58.948Z,1020.68
2019-03-19T10:53:58.780Z,1020.71
2019-03-19T10:54:58.795Z,1020.75
2019-03-19T10:55:58.830Z,1020.77
2019-03-19T10:56:58.808Z,1020.72
2019-03-19T10:57:58.826Z,1020.72
2019-03-19T10:58:58.822Z,1020.73
2019-03-19T10:59:58.819Z,1020.72
2019-03-19T11:00:58.850Z,1020.73
2019-03-19T11:01:58.835Z,1020.70
2019-03-19T11:02:58.835Z,1020.75
2019-03-19T11:03:58.934Z,1020.73
2019-03-19T11:04:58.821Z,1020.70
2019-03-19T11:05:58.846Z,1020.65
2019-03-19T11:06:58.871Z,1020.75
2019-03-19T11:07:58.874Z,1020.75
2019-03-19T11:08:58.876Z,1020.71
2019-03-19T11:09:58.895Z,1020.71
2019-03-19T11:10:58.859Z,1020.70
2019-03-19T11:11:58.870Z,1020.74
2019-03-19T11:12:58.921Z,1020.71
2019-03-19T11:13:58.862Z,1020.70
2019-03-19T11:14:58.940Z,1020.67
2019-03-19T11:15:58.899Z,1020.66
2019-03-19T11:16:58.916Z,1020.61
2019-03-19T11:17:58.893Z,1020.66
2019-03-19T11:18:58.903Z,1020.62
2019-03-19T11:19:58.950Z,1020.72
2019-03-19T11:20:58.932Z,1020.73
2019-03-19T11:21:58.926Z,1020.74
2019-03-19T11:22:58.926Z,1020.73
2019-03-19T11:23:58.941Z,1020.77
2019-03-19T11:24:59.101Z,1020.73
2019-03-19T11:25:58.972Z,1020.74
2019-03-19T11:26:58.936Z,1020.76
2019-03-19T11:27:59.024Z,1020.77
2019-03-19T11:28:58.976Z,1020.74
2019-03-19T11:30:00.076Z,1020.71
2019-03-19T11:30:59.004Z,1020.73
2019-03-19T11:31:58.985Z,1020.80
2019-03-19T11:32:59.016Z,1020.74
2019-03-19T11:33:59.064Z,1020.76
2019-03-19T11:34:58.989Z,1020.75
2019-03-19T11:35:59.018Z,1020.72
2019-03-19T11:36:59.013Z,1020.76
2019-03-19T11:37:59.011Z,1020.72
2019-03-19T11:38:58.991Z,1020.73
2019-03-19T11:39:59.003Z,1020.73
2019-03-19T11:40:59.053Z,1020.77
2019-03-19T11:41:59.054Z,1020.64
2019-03-19T11:42:59.016Z,1020.66
2019-03-19T11:43:59.015Z,1020.72
2019-03-19T11:44:59.030Z,1020.74
2019-03-19T11:45:59.037Z,1020.67
2019-03-19T11:46:59.198Z,1020.83
2019-03-19T11:47:59.063Z,1020.81
2019-03-19T11:48:59.062Z,1020.79
2019-03-19T11:49:59.121Z,1020.79
2019-03-19T11:50:59.066Z,1020.79
2019-03-19T11:51:59.064Z,1020.83
2019-03-19T11:52:59.091Z,1020.78
2019-03-19T11:53:59.102Z,1020.82
2019-03-19T11:54:59.072Z,1020.85
2019-03-19T11:55:59.108Z,1020.81
2019-03-19T11:56:59.130Z,1020.84
2019-03-19T11:57:59.124Z,1020.87
2019-03-19T11:58:59.129Z,1020.80
2019-03-19T11:59:59.103Z,1020.86
2019-03-19T12:00:59.091Z,1020.90
2019-03-19T12:01:59.106Z,1020.91
2019-03-19T12:02:59.162Z,1020.94
2019-03-19T12:03:59.175Z,1020.90
2019-03-19T12:04:59.120Z,1020.93
2019-03-19T12:05:59.128Z,1020.95